Time;durP1;ratioP1;P1;durP2;ratioP2;P2;SDS_P1;SDS_P2;PMS_P1;PMS_P2;Temp;Humidity;BMP_temperature;BMP_pressure;BME280_temperature;BME280_humidity;BME280_pressure;Samples;Min_cycle;Max_cycle;Signal;HPM_P1;HPM_P2
2021/10/11 00:01:49;;;;;;;10.93;8.40;;;3.20;83.70;;;;;;5017782;29;20511;-65
2021/10/11 00:04:21;;;;;;;8.40;7.53;;;3.20;83.80;;;;;;5020295;29;20077;-66
2021/10/11 00:06:53;;;;;;;9.13;8.23;;;3.10;83.70;;;;;;5017063;29;20053;-65
2021/10/11 00:09:25;;;;;;;9.95;8.95;;;3.10;84.10;;;;;;5019159;29;20145;-65
2021/10/11 00:11:57;;;;;;;9.40;8.40;;;3.10;84.10;;;;;;5019526;29;20532;-66
2021/10/11 00:14:29;;;;;;;9.45;8.45;;;3.10;84.00;;;;;;5018634;29;20144;-65
2021/10/11 00:17:01;;;;;;;9.20;7.90;;;3.10;84.00;;;;;;5019974;29;21154;-65
2021/10/11 00:19:35;;;;;;;9.75;8.75;;;3.00;84.20;;;;;;5020049;29;20080;-65
2021/10/11 00:22:07;;;;;;;10.65;9.50;;;3.00;84.20;;;;;;5018750;29;20045;-65
2021/10/11 00:24:39;;;;;;;11.65;10.45;;;3.00;84.10;;;;;;5017339;29;20060;-64
2021/10/11 00:27:11;;;;;;;11.25;10.02;;;3.00;83.70;;;;;;5018508;29;20596;-65
2021/10/11 00:29:43;;;;;;;9.75;8.77;;;3.00;83.30;;;;;;5018071;29;20049;-65
2021/10/11 00:32:15;;;;;;;10.20;8.68;;;2.90;84.50;;;;;;5019331;29;20045;-65
2021/10/11 00:34:47;;;;;;;10.00;8.93;;;2.90;84.80;;;;;;5018015;29;20124;-64
2021/10/11 00:37:19;;;;;;;8.70;7.78;;;2.80;84.90;;;;;;5018844;29;20073;-65
2021/10/11 00:39:51;;;;;;;8.20;7.30;;;2.80;85.00;;;;;;5017096;29;20207;-65
2021/10/11 00:42:23;;;;;;;9.05;7.20;;;2.80;84.80;;;;;;5018393;29;20073;-66
2021/10/11 00:44:55;;;;;;;9.07;8.18;;;2.80;85.00;;;;;;5018470;29;20483;-66
2021/10/11 00:47:26;;;;;;;10.07;8.05;;;2.80;85.40;;;;;;5016961;29;20891;-65
2021/10/11 00:49:58;;;;;;;9.20;8.30;;;2.80;86.00;;;;;;5019262;29;20050;-65
2021/10/11 00:52:30;;;;;;;8.10;7.30;;;2.80;86.70;;;;;;5018773;29;20041;-65
2021/10/11 00:55:03;;;;;;;7.90;7.10;;;2.70;85.90;;;;;;5018468;29;20488;-65
2021/10/11 00:57:34;;;;;;;8.10;7.30;;;2.70;85.10;;;;;;5017928;29;20073;-66
2021/10/11 01:00:07;;;;;;;7.97;7.28;;;2.70;84.80;;;;;;5017187;29;20080;-65
2021/10/11 01:02:40;;;;;;;8.95;8.02;;;2.70;84.50;;;;;;5018911;29;20067;-64
2021/10/11 01:05:12;;;;;;;8.02;7.32;;;2.70;84.50;;;;;;5018311;29;20081;-66
2021/10/11 01:07:44;;;;;;;8.30;7.50;;;2.70;84.40;;;;;;5002722;29;20058;-65
2021/10/11 01:10:16;;;;;;;7.60;6.78;;;2.70;84.10;;;;;;5017496;29;20691;-65
2021/10/11 01:12:48;;;;;;;7.72;7.03;;;2.70;83.80;;;;;;5018260;29;20101;-65
2021/10/11 01:15:20;;;;;;;7.80;7.10;;;2.70;83.90;;;;;;5017997;29;20049;-64
2021/10/11 01:17:52;;;;;;;7.55;6.85;;;2.60;83.90;;;;;;5016593;29;20133;-65
2021/10/11 01:20:24;;;;;;;10.23;9.13;;;2.60;83.90;;;;;;5017579;29;20415;-66
2021/10/11 01:22:56;;;;;;;11.73;10.40;;;2.60;84.00;;;;;;5017429;29;20053;-66
2021/10/11 01:25:28;;;;;;;11.77;9.77;;;2.60;84.20;;;;;;5017824;29;20137;-66
2021/10/11 01:28:00;;;;;;;10.38;8.77;;;2.60;83.90;;;;;;5015794;29;20049;-65
2021/10/11 01:30:31;;;;;;;8.20;7.40;;;2.60;84.20;;;;;;5018563;29;20045;-65
2021/10/11 01:33:04;;;;;;;8.65;7.78;;;2.60;83.50;;;;;;5018495;29;20161;-67
2021/10/11 01:35:36;;;;;;;8.75;7.88;;;2.60;83.50;;;;;;5018808;29;20140;-65
2021/10/11 01:38:11;;;;;;;8.57;7.75;;;2.50;83.40;;;;;;5015859;29;20052;-65
2021/10/11 01:40:43;;;;;;;8.88;7.97;;;2.50;83.50;;;;;;5018231;29;20053;-65
2021/10/11 01:43:15;;;;;;;8.35;7.55;;;2.50;83.50;;;;;;5017337;29;20102;-65
2021/10/11 01:45:51;;;;;;;7.85;7.05;;;2.60;83.40;;;;;;5017390;29;20055;-66
2021/10/11 01:48:23;;;;;;;8.07;7.28;;;2.60;83.60;;;;;;5018682;29;20645;-66
2021/10/11 01:50:55;;;;;;;8.60;7.72;;;2.50;83.00;;;;;;5001685;29;20086;-64
2021/10/11 01:53:27;;;;;;;8.60;7.63;;;2.50;83.40;;;;;;5017653;29;20053;-65
2021/10/11 01:55:59;;;;;;;9.68;8.52;;;2.50;83.20;;;;;;5016894;29;20049;-64
2021/10/11 01:58:33;;;;;;;9.65;7.70;;;2.50;83.10;;;;;;5017222;29;20170;-65
2021/10/11 02:01:05;;;;;;;8.60;7.75;;;2.50;83.20;;;;;;5017393;29;20740;-66
2021/10/11 02:03:37;;;;;;;9.20;7.47;;;2.50;83.60;;;;;;5016472;29;20049;-66
2021/10/11 02:06:09;;;;;;;8.27;7.47;;;2.50;83.20;;;;;;5000145;29;20052;-65
2021/10/11 02:08:41;;;;;;;7.63;6.75;;;2.50;83.40;;;;;;5016747;29;20107;-65
2021/10/11 02:11:13;;;;;;;7.70;7.00;;;2.50;83.30;;;;;;5017003;29;20059;-66
2021/10/11 02:13:45;;;;;;;7.43;6.72;;;2.50;83.50;;;;;;5017647;29;20535;-64
2021/10/11 02:16:17;;;;;;;7.88;6.95;;;2.40;83.40;;;;;;5015790;29;20063;-67
2021/10/11 02:18:48;;;;;;;7.75;7.00;;;2.40;83.10;;;;;;5017692;29;20052;-66
2021/10/11 02:21:20;;;;;;;9.00;6.72;;;2.40;82.90;;;;;;5015601;29;20053;-66
2021/10/11 02:23:52;;;;;;;7.40;6.70;;;2.50;83.30;;;;;;5016726;29;20148;-65
2021/10/11 02:26:24;;;;;;;7.80;7.00;;;2.40;83.70;;;;;;5015296;29;20149;-67
2021/10/11 02:28:57;;;;;;;8.35;7.45;;;2.30;83.60;;;;;;5017174;29;20060;-65
2021/10/11 02:31:29;;;;;;;7.78;7.00;;;2.30;83.60;;;;;;5015218;29;20045;-65
2021/10/11 02:34:01;;;;;;;9.25;7.43;;;2.30;83.40;;;;;;5017306;29;20147;-65
2021/10/11 02:36:33;;;;;;;8.18;7.00;;;2.40;83.10;;;;;;5013493;29;20045;-65
2021/10/11 02:39:06;;;;;;;9.40;8.02;;;2.30;82.70;;;;;;5016765;29;20045;-65
2021/10/11 02:41:38;;;;;;;9.52;8.52;;;2.40;82.50;;;;;;5013323;29;20612;-65
2021/10/11 02:44:10;;;;;;;9.20;8.30;;;2.30;82.00;;;;;;5015683;29;20851;-65
2021/10/11 02:46:42;;;;;;;8.40;7.47;;;2.30;82.10;;;;;;4999392;29;20053;-65
2021/10/11 02:49:14;;;;;;;8.25;6.60;;;2.30;83.10;;;;;;5016307;29;20152;-66
2021/10/11 02:51:46;;;;;;;7.22;6.53;;;2.30;84.10;;;;;;5016703;29;20498;-65
2021/10/11 02:54:17;;;;;;;7.03;6.32;;;2.20;83.80;;;;;;5017747;29;20610;-66
2021/10/11 02:56:49;;;;;;;7.20;6.50;;;2.20;83.80;;;;;;5015287;29;20719;-67
2021/10/11 02:59:21;;;;;;;8.18;7.38;;;2.20;83.90;;;;;;5017112;29;20049;-65
2021/10/11 03:01:53;;;;;;;11.65;8.68;;;2.20;83.70;;;;;;5015213;29;20520;-65
2021/10/11 03:04:25;;;;;;;10.32;9.23;;;2.20;83.60;;;;;;5017641;29;20132;-66
2021/10/11 03:06:57;;;;;;;9.77;8.63;;;2.20;83.30;;;;;;5015135;29;20045;-64
2021/10/11 03:09:29;;;;;;;8.73;7.47;;;2.10;83.00;;;;;;5017233;29;20776;-66
2021/10/11 03:12:01;;;;;;;7.88;7.07;;;2.20;82.90;;;;;;5014484;29;20067;-65
2021/10/11 03:14:33;;;;;;;7.75;6.95;;;2.20;82.40;;;;;;5005106;29;20049;-66
2021/10/11 03:17:05;;;;;;;7.72;6.72;;;2.20;82.30;;;;;;5015100;29;20059;-65
2021/10/11 03:19:37;;;;;;;10.30;6.93;;;2.10;82.30;;;;;;5015848;29;20045;-65
2021/10/11 03:22:09;;;;;;;8.70;7.75;;;2.20;82.10;;;;;;5015876;29;20049;-65
2021/10/11 03:24:41;;;;;;;8.15;7.35;;;2.20;82.10;;;;;;5015426;29;20682;-64
2021/10/11 03:27:13;;;;;;;7.70;7.00;;;2.10;83.10;;;;;;5015559;29;20049;-65
2021/10/11 03:29:45;;;;;;;9.07;7.43;;;2.10;83.10;;;;;;5014868;29;20045;-65
2021/10/11 03:32:17;;;;;;;8.32;7.32;;;2.10;82.50;;;;;;5016274;29;20129;-65
2021/10/11 03:34:48;;;;;;;8.48;7.57;;;2.10;82.30;;;;;;5015394;29;20378;-66
2021/10/11 03:37:20;;;;;;;7.78;6.97;;;2.10;82.00;;;;;;5015723;29;20133;-65
2021/10/11 03:39:52;;;;;;;7.85;7.13;;;2.10;82.20;;;;;;5015270;29;20091;-66
2021/10/11 03:42:24;;;;;;;8.77;7.10;;;2.10;82.30;;;;;;5016587;29;20048;-66
2021/10/11 03:44:56;;;;;;;7.80;6.82;;;2.10;82.00;;;;;;5014927;29;20073;-66
2021/10/11 03:47:28;;;;;;;7.28;6.57;;;2.10;82.00;;;;;;5014854;29;20059;-66
2021/10/11 03:50:00;;;;;;;7.55;6.82;;;2.10;82.10;;;;;;5016180;29;20120;-67
2021/10/11 03:52:32;;;;;;;8.55;6.32;;;2.10;82.00;;;;;;5016817;29;20041;-65
2021/10/11 03:55:05;;;;;;;7.80;7.00;;;2.10;82.30;;;;;;5016962;29;20527;-68
2021/10/11 03:57:37;;;;;;;7.78;6.97;;;2.10;82.10;;;;;;5014620;29;20392;-66
2021/10/11 04:00:10;;;;;;;7.55;6.70;;;2.10;82.30;;;;;;5013999;29;21138;-65
2021/10/11 04:02:44;;;;;;;8.55;7.60;;;2.10;82.20;;;;;;5016029;29;20252;-65
2021/10/11 04:05:16;;;;;;;9.85;8.52;;;2.00;82.10;;;;;;5013672;29;20100;-65
2021/10/11 04:07:51;;;;;;;8.07;7.28;;;2.00;82.20;;;;;;5015845;29;20054;-65
2021/10/11 04:10:28;;;;;;;9.52;8.52;;;2.00;82.40;;;;;;5015391;29;20057;-65
2021/10/11 04:13:05;;;;;;;9.52;7.82;;;1.90;82.40;;;;;;5015984;29;20056;-65
2021/10/11 04:15:37;;;;;;;10.20;7.80;;;1.90;82.30;;;;;;5015706;29;20528;-65
2021/10/11 04:18:08;;;;;;;8.85;7.13;;;1.90;82.90;;;;;;5014623;29;20049;-64
2021/10/11 04:20:41;;;;;;;8.35;7.15;;;1.80;82.50;;;;;;5015730;29;20073;-67
2021/10/11 04:23:13;;;;;;;9.20;7.35;;;1.80;82.60;;;;;;5017507;29;20133;-65
2021/10/11 04:25:45;;;;;;;9.25;8.15;;;1.80;82.60;;;;;;5014307;29;20053;-64
2021/10/11 04:28:18;;;;;;;8.82;6.80;;;1.70;82.40;;;;;;5015785;29;20049;-65
2021/10/11 04:30:50;;;;;;;8.77;7.22;;;1.80;82.40;;;;;;5015139;29;20395;-67
2021/10/11 04:33:23;;;;;;;7.38;6.65;;;1.70;82.30;;;;;;5015065;29;20154;-66
2021/10/11 04:35:55;;;;;;;7.57;6.60;;;1.70;82.50;;;;;;5002148;29;20045;-64
2021/10/11 04:38:27;;;;;;;7.55;6.65;;;1.70;82.10;;;;;;5015374;29;20049;-64
2021/10/11 04:41:04;;;;;;;8.15;7.20;;;1.70;82.00;;;;;;5014735;29;20057;-65
2021/10/11 04:43:36;;;;;;;8.48;6.95;;;1.70;82.00;;;;;;5012953;29;20724;-65
2021/10/11 04:46:08;;;;;;;13.15;7.47;;;1.60;82.10;;;;;;5016445;29;20168;-65
2021/10/11 04:48:40;;;;;;;8.02;6.50;;;1.60;82.30;;;;;;5016628;29;20860;-65
2021/10/11 04:51:12;;;;;;;9.57;6.88;;;1.50;82.50;;;;;;5016190;29;20053;-66
2021/10/11 04:53:44;;;;;;;8.23;6.93;;;1.50;82.10;;;;;;5019062;29;20136;-65
2021/10/11 04:56:16;;;;;;;9.25;6.93;;;1.50;82.00;;;;;;5017701;29;20117;-65
2021/10/11 04:58:48;;;;;;;8.23;6.70;;;1.50;82.00;;;;;;5018464;29;20052;-65
2021/10/11 05:01:21;;;;;;;7.93;6.70;;;1.60;81.80;;;;;;5017360;29;20057;-64
2021/10/11 05:03:53;;;;;;;8.70;7.25;;;1.60;81.90;;;;;;5017580;29;20606;-65
2021/10/11 05:06:25;;;;;;;8.32;7.18;;;1.50;82.10;;;;;;5017695;29;20986;-67
2021/10/11 05:09:00;;;;;;;9.48;6.32;;;1.50;81.90;;;;;;5017856;29;20060;-64
2021/10/11 05:11:32;;;;;;;6.47;5.68;;;1.50;82.10;;;;;;5016867;29;20045;-65
2021/10/11 05:14:04;;;;;;;6.70;5.70;;;1.50;82.50;;;;;;5018321;29;20413;-64
2021/10/11 05:16:37;;;;;;;7.07;5.40;;;1.50;83.00;;;;;;5016324;29;20045;-65
2021/10/11 05:19:10;;;;;;;7.78;5.82;;;1.50;83.20;;;;;;5016935;29;20052;-65
2021/10/11 05:21:42;;;;;;;7.38;6.03;;;1.50;82.90;;;;;;5017526;29;20054;-65
2021/10/11 05:24:13;;;;;;;7.10;5.60;;;1.50;83.10;;;;;;5016656;29;20053;-64
2021/10/11 05:26:45;;;;;;;7.25;6.22;;;1.50;83.50;;;;;;5016174;29;20054;-65
2021/10/11 05:29:18;;;;;;;7.60;6.65;;;1.50;83.00;;;;;;5016109;29;20148;-64
2021/10/11 05:31:53;;;;;;;12.77;8.93;;;1.50;83.60;;;;;;5017536;29;20611;-65
2021/10/11 05:34:26;;;;;;;14.73;11.40;;;1.40;82.40;;;;;;4996336;29;20137;-66
2021/10/11 05:36:59;;;;;;;8.30;6.82;;;1.40;82.00;;;;;;5014615;29;20074;-66
2021/10/11 05:39:31;;;;;;;6.43;5.30;;;1.50;82.10;;;;;;5016606;29;20053;-64
2021/10/11 05:42:06;;;;;;;7.18;6.20;;;1.50;83.10;;;;;;5016296;29;20136;-64
2021/10/11 05:44:38;;;;;;;7.40;5.93;;;1.40;83.10;;;;;;5016908;29;20078;-65
2021/10/11 05:47:10;;;;;;;8.65;6.60;;;1.40;83.90;;;;;;5017124;29;20534;-65
2021/10/11 05:49:42;;;;;;;10.55;7.38;;;1.40;83.40;;;;;;5000898;29;20089;-64
2021/10/11 05:52:14;;;;;;;8.65;7.20;;;1.40;82.70;;;;;;5017430;29;20054;-65
2021/10/11 05:54:46;;;;;;;8.10;6.80;;;1.30;82.60;;;;;;5017510;29;20687;-65
2021/10/11 05:57:18;;;;;;;12.38;6.70;;;1.30;82.80;;;;;;5017343;29;20057;-65
2021/10/11 05:59:50;;;;;;;7.35;6.45;;;1.30;82.70;;;;;;4986230;29;20390;-65
2021/10/11 06:02:22;;;;;;;7.60;6.13;;;1.40;82.60;;;;;;5018286;29;20053;-65
2021/10/11 06:04:54;;;;;;;8.57;6.60;;;1.40;82.90;;;;;;5017686;29;20053;-66
2021/10/11 06:07:30;;;;;;;7.75;6.15;;;1.40;83.00;;;;;;5017373;29;20053;-66
2021/10/11 06:10:03;;;;;;;8.68;6.68;;;1.40;83.00;;;;;;5000727;29;20101;-66
2021/10/11 06:12:35;;;;;;;7.85;6.28;;;1.50;83.10;;;;;;5018166;29;20412;-66
2021/10/11 06:15:07;;;;;;;6.05;5.40;;;1.60;82.80;;;;;;5016547;29;20073;-63
2021/10/11 06:17:39;;;;;;;7.00;5.90;;;1.70;83.40;;;;;;5016332;29;20076;-65
2021/10/11 06:20:11;;;;;;;9.13;7.65;;;1.80;83.60;;;;;;5014300;29;20066;-65
2021/10/11 06:22:43;;;;;;;7.88;6.82;;;1.90;84.20;;;;;;5016281;29;20053;-65
2021/10/11 06:25:15;;;;;;;7.50;6.45;;;2.00;83.10;;;;;;5015877;29;20140;-65
2021/10/11 06:27:48;;;;;;;8.20;7.35;;;2.10;82.80;;;;;;5015308;29;20144;-65
2021/10/11 06:30:19;;;;;;;8.57;6.70;;;2.20;82.70;;;;;;5016201;29;20102;-66
2021/10/11 06:32:51;;;;;;;7.57;6.50;;;2.30;82.60;;;;;;5017356;29;20141;-65
2021/10/11 06:35:23;;;;;;;8.73;6.40;;;2.40;82.50;;;;;;5016068;29;20077;-65
2021/10/11 06:37:55;;;;;;;8.60;7.28;;;2.50;82.50;;;;;;5016112;29;20132;-65
2021/10/11 06:40:27;;;;;;;8.60;7.03;;;2.60;82.30;;;;;;5016423;29;20509;-65
2021/10/11 06:43:02;;;;;;;8.60;6.80;;;2.70;82.80;;;;;;5016388;29;20136;-66
2021/10/11 06:45:34;;;;;;;8.68;7.30;;;2.70;83.50;;;;;;5015774;29;20465;-65
2021/10/11 06:48:06;;;;;;;10.07;8.05;;;2.80;83.50;;;;;;5015791;29;20193;-65
2021/10/11 06:50:38;;;;;;;8.30;7.38;;;2.90;83.30;;;;;;5017131;29;20671;-66
2021/10/11 06:53:10;;;;;;;8.68;7.30;;;3.00;83.30;;;;;;5017106;29;20156;-65
2021/10/11 06:55:42;;;;;;;8.40;7.25;;;3.10;82.60;;;;;;5017539;29;20073;-65
2021/10/11 06:58:14;;;;;;;8.10;6.60;;;3.00;82.30;;;;;;5016826;29;20542;-65
2021/10/11 07:00:46;;;;;;;10.27;7.03;;;3.00;82.40;;;;;;5015974;29;20063;-66
2021/10/11 07:03:24;;;;;;;7.63;6.82;;;3.00;82.70;;;;;;5000219;29;20049;-66
2021/10/11 07:06:00;;;;;;;9.07;7.03;;;3.10;82.40;;;;;;5000611;29;20050;-65
2021/10/11 07:08:33;;;;;;;7.15;6.45;;;3.20;82.30;;;;;;5015691;29;20102;-65
2021/10/11 07:11:08;;;;;;;7.72;6.90;;;3.20;81.90;;;;;;5016217;29;20625;-66
2021/10/11 07:13:42;;;;;;;7.55;6.75;;;3.40;82.20;;;;;;5014737;29;20049;-66
2021/10/11 07:16:15;;;;;;;8.25;7.15;;;3.50;81.80;;;;;;5016596;29;20516;-65
2021/10/11 07:18:47;;;;;;;8.18;6.63;;;3.60;82.00;;;;;;5015347;29;20052;-66
2021/10/11 07:21:18;;;;;;;7.72;6.90;;;3.80;81.70;;;;;;5016715;29;20057;-65
2021/10/11 07:23:50;;;;;;;8.77;7.32;;;3.90;82.00;;;;;;5015591;29;20041;-66
2021/10/11 07:26:22;;;;;;;8.25;7.38;;;4.00;81.90;;;;;;5015049;29;20053;-66
2021/10/11 07:28:54;;;;;;;8.63;7.65;;;4.10;82.00;;;;;;5016277;29;20100;-67
2021/10/11 07:31:26;;;;;;;7.88;6.97;;;4.30;81.60;;;;;;5014767;29;20344;-65
2021/10/11 07:33:58;;;;;;;8.70;7.35;;;4.50;81.00;;;;;;5016128;29;20050;-65
2021/10/11 07:36:29;;;;;;;9.05;7.40;;;4.60;81.60;;;;;;5014861;29;20117;-65
2021/10/11 07:39:03;;;;;;;7.38;6.68;;;4.70;80.90;;;;;;5015830;29;20561;-66
2021/10/11 07:41:35;;;;;;;8.68;7.10;;;4.80;81.10;;;;;;5016187;29;20065;-66
2021/10/11 07:44:09;;;;;;;7.63;6.93;;;4.90;80.10;;;;;;5014931;29;20049;-66
2021/10/11 07:46:41;;;;;;;9.25;7.63;;;5.00;79.50;;;;;;5014488;29;20058;-65
2021/10/11 07:49:32;;;;;;;8.30;7.50;;;5.20;78.90;;;;;;5016243;29;20540;-65
2021/10/11 07:52:05;;;;;;;8.77;7.60;;;5.40;79.90;;;;;;5016291;29;20057;-66
2021/10/11 07:54:36;;;;;;;8.68;7.78;;;5.60;78.10;;;;;;5016168;29;20781;-65
2021/10/11 07:57:08;;;;;;;8.25;7.45;;;5.80;77.40;;;;;;5016604;29;20535;-66
2021/10/11 07:59:40;;;;;;;8.70;7.90;;;6.00;77.20;;;;;;5014950;29;20046;-66
2021/10/11 08:02:12;;;;;;;8.60;7.80;;;6.10;76.80;;;;;;4999965;29;20144;-66
2021/10/11 08:04:44;;;;;;;8.40;7.60;;;6.30;78.10;;;;;;5016013;29;20081;-67
2021/10/11 08:07:16;;;;;;;8.27;7.50;;;6.50;77.20;;;;;;5016161;29;20049;-65
2021/10/11 08:09:48;;;;;;;8.30;7.60;;;6.60;73.70;;;;;;5016545;29;20901;-66
2021/10/11 08:12:21;;;;;;;8.10;7.40;;;6.70;67.70;;;;;;5015859;29;20525;-66
2021/10/11 08:14:53;;;;;;;8.18;7.47;;;6.80;68.70;;;;;;5016878;29;20069;-66
2021/10/11 08:17:25;;;;;;;8.57;7.65;;;7.00;66.00;;;;;;5014512;29;20056;-67
2021/10/11 08:19:57;;;;;;;8.50;7.70;;;7.20;69.80;;;;;;5016369;29;20051;-66
2021/10/11 08:22:29;;;;;;;9.68;8.77;;;7.40;72.70;;;;;;5018360;29;21390;-66
2021/10/11 08:25:01;;;;;;;9.27;8.48;;;7.60;72.70;;;;;;5020175;29;20049;-66
2021/10/11 08:27:33;;;;;;;9.50;8.60;;;7.80;71.90;;;;;;5017704;29;20049;-66
2021/10/11 08:30:06;;;;;;;9.65;8.85;;;7.90;70.60;;;;;;5018620;29;20156;-66
2021/10/11 08:32:38;;;;;;;10.00;9.20;;;8.10;71.30;;;;;;5019644;29;20056;-67
2021/10/11 08:35:10;;;;;;;9.82;9.02;;;8.20;72.60;;;;;;5018764;29;20120;-66
2021/10/11 08:37:42;;;;;;;10.05;9.07;;;8.40;71.30;;;;;;5002357;29;20041;-66
2021/10/11 08:40:14;;;;;;;9.73;8.73;;;8.50;71.50;;;;;;5018685;29;20594;-66
2021/10/11 08:42:47;;;;;;;9.88;8.88;;;8.60;71.90;;;;;;5019825;29;20132;-66
2021/10/11 08:45:19;;;;;;;9.02;8.23;;;8.80;71.30;;;;;;5019039;29;20132;-65
2021/10/11 08:47:51;;;;;;;9.40;8.60;;;8.90;71.00;;;;;;5001521;29;20462;-66
2021/10/11 08:50:23;;;;;;;10.60;9.60;;;9.00;70.10;;;;;;5019121;29;20114;-66
2021/10/11 08:52:55;;;;;;;9.30;8.50;;;9.20;67.10;;;;;;5019492;29;20194;-67
2021/10/11 08:55:27;;;;;;;9.90;9.07;;;9.20;70.30;;;;;;5018318;29;20607;-67
2021/10/11 08:58:01;;;;;;;9.50;8.70;;;9.40;68.70;;;;;;5002432;29;20138;-67
2021/10/11 09:00:38;;;;;;;10.18;9.27;;;9.50;66.90;;;;;;5019202;29;20088;-66
2021/10/11 09:03:16;;;;;;;10.07;9.18;;;9.60;69.70;;;;;;5019949;29;20056;-66
2021/10/11 09:05:52;;;;;;;9.90;9.10;;;9.70;68.60;;;;;;5019007;29;20109;-68
2021/10/11 09:08:31;;;;;;;10.07;9.18;;;9.80;68.70;;;;;;5018954;29;20050;-66
2021/10/11 09:11:05;;;;;;;10.95;9.68;;;10.00;69.60;;;;;;5019125;29;20053;-66
2021/10/11 09:13:43;;;;;;;10.48;9.48;;;10.10;68.50;;;;;;5018845;29;20073;-66
2021/10/11 09:16:34;;;;;;;11.63;10.57;;;10.20;67.00;;;;;;5017515;29;20053;-66
2021/10/11 09:19:10;;;;;;;;;;;10.20;66.60;;;;;;5018189;29;20060;-67
2021/10/11 09:21:42;;;;;;;11.35;10.10;;;10.20;67.00;;;;;;5018273;29;19935;-66
2021/10/11 09:24:19;;;;;;;11.40;10.30;;;10.20;67.40;;;;;;5005458;29;20063;-66
2021/10/11 09:26:59;;;;;;;10.90;9.80;;;10.20;67.90;;;;;;5017822;29;20433;-65
2021/10/11 09:29:34;;;;;;;10.55;9.63;;;10.20;67.80;;;;;;5018727;29;20141;-66
2021/10/11 09:32:09;;;;;;;10.25;9.35;;;10.20;67.90;;;;;;5018260;29;20988;-66
2021/10/11 09:34:42;;;;;;;10.90;9.90;;;10.30;68.90;;;;;;5002000;29;20045;-66
2021/10/11 09:37:14;;;;;;;12.23;11.13;;;10.30;68.90;;;;;;5017883;29;20225;-66
2021/10/11 09:39:46;;;;;;;11.18;10.18;;;10.40;69.20;;;;;;5018418;29;20057;-66
2021/10/11 09:42:18;;;;;;;10.60;9.70;;;10.50;68.10;;;;;;5018220;29;20057;-67
2021/10/11 09:44:54;;;;;;;10.80;9.43;;;10.60;68.50;;;;;;5017521;29;20061;-66
2021/10/11 09:47:33;;;;;;;11.05;9.95;;;10.70;68.60;;;;;;5017105;29;20057;-66
2021/10/11 09:50:08;;;;;;;10.48;9.57;;;10.80;68.30;;;;;;5001951;29;20057;-66
2021/10/11 09:52:41;;;;;;;11.05;10.15;;;10.80;67.50;;;;;;5018570;29;20530;-67
2021/10/11 09:55:14;;;;;;;11.00;10.10;;;10.90;66.50;;;;;;5017707;29;20040;-66
2021/10/11 09:57:47;;;;;;;11.70;10.60;;;11.00;67.50;;;;;;5016968;29;20539;-66
2021/10/11 10:00:19;;;;;;;11.50;10.50;;;11.00;67.10;;;;;;5017855;29;20067;-66
2021/10/11 10:02:54;;;;;;;11.68;10.68;;;11.10;66.80;;;;;;5018653;29;20113;-66
2021/10/11 10:05:35;;;;;;;12.18;11.18;;;11.20;66.00;;;;;;5018162;29;20752;-66
2021/10/11 10:08:10;;;;;;;11.80;10.80;;;11.30;67.20;;;;;;5017654;29;20068;-66
2021/10/11 10:10:48;;;;;;;12.48;11.48;;;11.40;65.60;;;;;;5016921;29;20870;-67
2021/10/11 10:13:24;;;;;;;12.05;11.05;;;11.50;64.00;;;;;;5018136;29;21260;-66
2021/10/11 10:16:07;;;;;;;11.02;10.13;;;11.60;63.60;;;;;;4999845;29;20128;-66
2021/10/11 10:18:44;;;;;;;11.35;10.45;;;11.60;61.80;;;;;;5016361;29;20128;-66
2021/10/11 10:21:17;;;;;;;11.15;10.25;;;11.60;60.60;;;;;;5017825;29;20152;-66
2021/10/11 10:23:56;;;;;;;11.93;10.93;;;11.70;62.70;;;;;;5017124;29;20133;-66
2021/10/11 10:26:36;;;;;;;11.93;10.82;;;11.80;62.00;;;;;;5015559;29;20652;-66
2021/10/11 10:29:26;;;;;;;11.40;10.40;;;11.90;61.60;;;;;;5016858;29;20073;-66
2021/10/11 10:32:06;;;;;;;11.38;10.38;;;12.00;60.70;;;;;;5015174;29;20748;-66
2021/10/11 10:34:39;;;;;;;10.93;9.82;;;12.10;61.00;;;;;;5016572;29;20133;-66
2021/10/11 10:37:14;;;;;;;10.48;9.57;;;12.20;59.70;;;;;;4999764;29;20054;-66
2021/10/11 10:39:49;;;;;;;11.15;10.15;;;12.20;55.90;;;;;;5015971;29;20056;-65
2021/10/11 10:42:27;;;;;;;10.88;9.98;;;12.30;58.80;;;;;;5015936;29;20133;-66
2021/10/11 10:45:01;;;;;;;11.07;10.18;;;12.30;57.60;;;;;;4985781;29;20053;-66
2021/10/11 10:47:40;;;;;;;10.70;9.80;;;12.40;57.80;;;;;;5014489;29;20045;-66
2021/10/11 10:50:16;;;;;;;11.95;10.85;;;12.40;55.30;;;;;;5015798;29;20060;-67
2021/10/11 10:52:49;;;;;;;11.10;10.10;;;12.40;55.30;;;;;;5015550;29;20136;-68
2021/10/11 10:55:22;;;;;;;11.32;10.32;;;12.40;57.10;;;;;;5015508;29;20105;-67
2021/10/11 10:58:03;;;;;;;11.38;10.48;;;12.50;57.40;;;;;;4998388;29;20108;-66
2021/10/11 11:00:35;;;;;;;11.15;10.25;;;12.60;56.60;;;;;;5011571;29;20163;-66
2021/10/11 11:03:10;;;;;;;12.18;11.18;;;12.70;56.10;;;;;;5016117;29;20655;-66
2021/10/11 11:05:44;;;;;;;12.52;11.30;;;12.80;56.90;;;;;;5011670;29;20060;-65
2021/10/11 11:08:36;;;;;;;11.57;10.57;;;12.90;57.70;;;;;;5013884;29;20053;-66
2021/10/11 11:11:08;;;;;;;12.40;11.32;;;13.10;56.40;;;;;;5011621;29;20570;-66
2021/10/11 11:13:40;;;;;;;11.40;10.45;;;13.20;53.60;;;;;;5011634;29;20056;-66
2021/10/11 11:16:12;;;;;;;11.13;10.13;;;13.20;55.90;;;;;;5014775;29;20086;-66
2021/10/11 11:18:53;;;;;;;11.50;10.60;;;13.30;56.50;;;;;;5014279;29;20057;-66
2021/10/11 11:21:27;;;;;;;11.10;10.20;;;13.30;56.70;;;;;;5015092;29;20940;-66
2021/10/11 11:23:59;;;;;;;15.13;10.45;;;13.30;55.50;;;;;;5015158;29;20130;-66
2021/10/11 11:26:31;;;;;;;11.23;10.23;;;13.30;53.30;;;;;;5009871;29;20552;-66
2021/10/11 11:29:03;;;;;;;11.38;10.25;;;13.20;53.40;;;;;;5015568;29;20053;-67
2021/10/11 11:31:35;;;;;;;11.05;10.15;;;13.20;56.10;;;;;;5014797;29;20617;-67
2021/10/11 11:34:07;;;;;;;11.00;10.10;;;13.20;53.90;;;;;;5015929;29;20046;-66
2021/10/11 11:36:53;;;;;;;11.10;10.20;;;13.20;53.20;;;;;;5015572;29;20164;-66
2021/10/11 11:39:25;;;;;;;10.90;10.00;;;13.20;54.10;;;;;;5016896;29;20077;-67
2021/10/11 11:41:57;;;;;;;10.93;10.02;;;13.30;55.30;;;;;;5014996;29;20059;-66
2021/10/11 11:44:29;;;;;;;11.00;10.00;;;13.20;55.20;;;;;;5016991;29;20217;-66
2021/10/11 11:47:07;;;;;;;10.75;9.88;;;13.20;52.40;;;;;;5014727;29;20140;-66
2021/10/11 11:49:41;;;;;;;11.52;10.63;;;13.10;53.90;;;;;;5016014;29;20073;-66
2021/10/11 11:52:14;;;;;;;11.48;10.48;;;13.20;54.00;;;;;;5016439;29;20428;-66
2021/10/11 11:54:54;;;;;;;11.18;9.95;;;13.20;55.00;;;;;;5016765;29;20055;-66
2021/10/11 11:57:28;;;;;;;12.07;10.98;;;13.30;54.90;;;;;;5020322;29;20054;-66
2021/10/11 11:59:59;;;;;;;11.07;10.18;;;13.30;54.70;;;;;;5020503;29;20419;-66
2021/10/11 12:02:36;;;;;;;11.13;10.13;;;13.30;53.00;;;;;;5020733;29;20153;-67
2021/10/11 12:05:09;;;;;;;11.80;10.82;;;13.30;53.00;;;;;;5017429;29;20164;-66
2021/10/11 12:07:41;;;;;;;11.88;10.68;;;13.30;53.40;;;;;;5018788;29;20177;-66
2021/10/11 12:10:23;;;;;;;11.35;10.32;;;13.30;54.10;;;;;;5019346;29;20410;-66
2021/10/11 12:13:03;;;;;;;10.98;10.00;;;13.30;52.80;;;;;;5004947;29;20113;-66
2021/10/11 12:15:37;;;;;;;10.77;9.77;;;13.30;52.60;;;;;;5018747;29;20033;-66
2021/10/11 12:18:11;;;;;;;11.52;10.43;;;13.40;52.40;;;;;;5018145;29;20976;-66
2021/10/11 12:20:43;;;;;;;11.48;10.45;;;13.30;52.20;;;;;;5018411;29;20202;-67
2021/10/11 12:23:16;;;;;;;11.52;10.43;;;13.30;53.30;;;;;;5020259;29;20592;-67
2021/10/11 12:25:49;;;;;;;13.32;12.13;;;13.30;53.00;;;;;;5017678;29;20129;-67
2021/10/11 12:28:21;;;;;;;13.00;11.68;;;13.30;53.50;;;;;;5018513;29;20133;-68
2021/10/11 12:31:01;;;;;;;12.02;10.95;;;13.30;52.20;;;;;;5019772;29;20053;-66
2021/10/11 12:33:38;;;;;;;10.80;9.90;;;13.20;53.60;;;;;;5019896;29;20057;-66
2021/10/11 12:36:12;;;;;;;10.68;9.88;;;13.30;53.70;;;;;;5016959;29;20326;-67
2021/10/11 12:38:44;;;;;;;11.38;10.38;;;13.20;55.10;;;;;;5019229;29;20045;-66
2021/10/11 12:41:17;;;;;;;11.32;10.43;;;13.30;54.70;;;;;;5016901;29;20183;-66
2021/10/11 12:43:55;;;;;;;10.13;9.32;;;13.30;53.80;;;;;;5019000;29;20829;-67
2021/10/11 12:46:27;;;;;;;10.88;9.80;;;13.30;54.10;;;;;;5018660;29;20658;-67
2021/10/11 12:49:03;;;;;;;9.77;8.98;;;13.30;54.30;;;;;;5018322;29;20049;-66
2021/10/11 12:51:36;;;;;;;9.10;8.40;;;13.30;55.30;;;;;;5017781;29;20057;-66
2021/10/11 12:54:12;;;;;;;9.75;8.95;;;13.30;52.60;;;;;;5019319;29;20076;-67
2021/10/11 12:56:52;;;;;;;10.32;9.52;;;13.20;53.30;;;;;;5018668;29;20578;-66
2021/10/11 12:59:24;;;;;;;10.65;9.75;;;13.20;54.00;;;;;;5020016;29;20045;-66
2021/10/11 13:01:59;;;;;;;10.80;9.90;;;13.20;54.90;;;;;;5017827;29;20137;-66
2021/10/11 13:04:32;;;;;;;10.95;10.05;;;13.20;54.20;;;;;;5017402;29;20056;-66
2021/10/11 13:07:03;;;;;;;10.35;9.45;;;13.20;54.90;;;;;;5017619;29;20532;-68
2021/10/11 13:09:35;;;;;;;10.20;9.40;;;13.20;53.90;;;;;;5019266;29;20188;-67
2021/10/11 13:12:07;;;;;;;9.88;9.07;;;13.20;53.50;;;;;;5015494;29;20081;-68
2021/10/11 13:14:39;;;;;;;9.90;9.10;;;13.20;53.30;;;;;;5018596;29;20427;-67
2021/10/11 13:17:11;;;;;;;10.05;9.25;;;13.30;53.90;;;;;;5014666;29;20049;-66
2021/10/11 13:19:43;;;;;;;10.43;9.52;;;13.30;53.30;;;;;;5018758;29;20061;-66